Time;durP1;ratioP1;P1;durP2;ratioP2;P2;SDS_P1;SDS_P2;PMS_P1;PMS_P2;Temp;Humidity;BMP_temperature;BMP_pressure;BME280_temperature;BME280_humidity;BME280_pressure;Samples;Min_cycle;Max_cycle;Signal;HPM_P1;HPM_P2
2022/11/03 00:02:16;;;;;;;11.25;3.63;;;;;;;19.79;32.65;99985.56;5051534;28;20040;-42
2022/11/03 00:04:42;;;;;;;12.70;3.40;;;;;;;19.93;32.46;99991.31;5051571;28;20420;-42
2022/11/03 00:07:08;;;;;;;15.05;3.42;;;;;;;20.11;31.91;99976.59;5051588;28;20036;-42
2022/11/03 00:09:34;;;;;;;10.30;3.67;;;;;;;20.20;32.16;99975.03;5050845;28;20471;-42
2022/11/03 00:12:00;;;;;;;8.90;3.17;;;;;;;20.25;31.63;99975.03;5052412;28;20107;-42
2022/11/03 00:14:26;;;;;;;7.65;3.45;;;;;;;20.39;31.78;99977.28;5052639;28;20098;-42
2022/11/03 00:16:52;;;;;;;9.15;3.40;;;;;;;20.67;31.70;99987.69;5053120;28;20416;-42
2022/11/03 00:19:17;;;;;;;10.48;3.50;;;;;;;20.73;31.09;99988.53;5052330;28;20028;-42
2022/11/03 00:21:43;;;;;;;10.57;3.17;;;;;;;20.81;31.02;99989.91;5052353;28;20029;-43
2022/11/03 00:24:09;;;;;;;9.63;3.30;;;;;;;20.64;31.27;99982.03;5051858;28;20061;-42
2022/11/03 00:26:35;;;;;;;7.05;3.17;;;;;;;20.98;30.93;99981.56;5052683;28;20029;-45
2022/11/03 00:29:09;;;;;;;15.43;3.80;;;;;;;20.83;30.73;99985.88;5052207;28;20418;-42
2022/11/03 00:31:37;;;;;;;12.18;3.60;;;;;;;20.95;30.79;99985.63;5052126;28;20056;-43
2022/11/03 00:34:03;;;;;;;11.98;3.75;;;;;;;20.81;30.67;99989.91;5052467;28;20484;-43
2022/11/03 00:36:31;;;;;;;10.25;3.70;;;;;;;20.53;31.37;99988.44;5052514;28;20049;-42
2022/11/03 00:38:57;;;;;;;12.27;3.42;;;;;;;20.39;31.10;99974.56;5052047;28;20087;-43
2022/11/03 00:41:24;;;;;;;10.45;3.45;;;;;;;20.71;30.94;99987.97;5052027;28;20025;-42
2022/11/03 00:43:50;;;;;;;11.50;3.10;;;;;;;20.81;30.50;99981.78;5052242;28;20111;-42
2022/11/03 00:46:17;;;;;;;9.07;3.38;;;;;;;20.81;30.75;99981.78;5052226;28;20463;-42
2022/11/03 00:48:43;;;;;;;7.07;3.22;;;;;;;20.74;30.64;99968.53;5052332;28;20051;-42
2022/11/03 00:51:32;;;;;;;10.70;3.40;;;;;;;20.79;30.90;99982.09;5052139;28;20465;-42
2022/11/03 00:54:00;;;;;;;11.45;3.20;;;;;;;20.73;30.88;99980.41;5052079;28;20024;-42
2022/11/03 00:56:32;;;;;;;8.10;3.50;;;;;;;20.64;30.75;99976.63;5052140;28;20075;-42
2022/11/03 00:58:59;;;;;;;8.55;3.70;;;;;;;20.97;30.28;99972.66;5052173;28;20013;-42
2022/11/03 01:01:27;;;;;;;12.23;3.28;;;;;;;21.30;29.87;99975.97;5052078;28;20032;-42
2022/11/03 01:06:50;;;;;;;7.22;3.08;;;;;;;21.35;29.47;99975.97;5052239;28;20032;-42
2022/11/03 01:09:22;;;;;;;10.18;3.53;;;;;;;21.51;29.36;99979.53;5051701;28;20051;-42
2022/11/03 01:12:09;;;;;;;7.32;3.17;;;;;;;21.70;29.33;99977.09;5052093;28;20154;-43
2022/11/03 01:14:41;;;;;;;7.85;2.85;;;;;;;21.55;29.10;99980.63;5051885;28;20056;-43
2022/11/03 01:17:12;;;;;;;9.95;3.28;;;;;;;21.57;29.34;99978.47;5052072;28;20027;-41
2022/11/03 01:19:38;;;;;;;10.35;3.20;;;;;;;21.18;29.72;99972.72;5051635;28;20158;-41
2022/11/03 01:22:03;;;;;;;7.47;3.20;;;;;;;21.01;30.10;99965.63;5051961;28;20096;-42
2022/11/03 01:24:29;;;;;;;6.30;2.83;;;;;;;21.00;29.85;99965.88;5051660;28;20199;-41
2022/11/03 01:26:54;;;;;;;10.00;3.33;;;;;;;20.92;30.42;99972.63;5051999;28;20028;-42
2022/11/03 01:29:20;;;;;;;8.32;3.28;;;;;;;20.87;30.39;99968.03;5051923;28;20459;-42
2022/11/03 01:31:45;;;;;;;7.45;3.03;;;;;;;21.22;29.90;99963.78;5051979;28;20108;-41
2022/11/03 01:34:19;;;;;;;8.13;3.40;;;;;;;21.63;29.22;99976.56;5051523;28;20021;-42
2022/11/03 01:36:45;;;;;;;10.18;3.70;;;;;;;21.71;29.25;99978.72;5051611;28;20112;-42
2022/11/03 01:39:16;;;;;;;6.10;3.10;;;;;;;21.72;28.93;99974.13;5051149;28;20033;-42
2022/11/03 01:41:43;;;;;;;7.70;2.92;;;;;;;21.55;29.26;99971.69;5051153;28;20466;-42
2022/11/03 01:44:08;;;;;;;5.97;3.00;;;;;;;21.18;29.96;99978.94;5051179;28;20023;-42
2022/11/03 01:47:02;;;;;;;13.38;2.90;;;;;;;20.68;30.45;99972.31;5051567;28;20021;-42
2022/11/03 01:49:45;;;;;;;6.47;3.00;;;;;;;20.62;30.32;99976.88;5032404;28;20029;-43
2022/11/03 01:52:40;;;;;;;9.48;2.90;;;;;;;20.59;30.94;99980.06;5051223;28;20542;-42
2022/11/03 01:55:35;;;;;;;10.48;3.20;;;;;;;20.34;31.09;99986.19;5047486;28;20055;-43
2022/11/03 01:58:15;;;;;;;10.80;2.90;;;;;;;20.55;30.89;99978.97;5048790;28;20115;-43
2022/11/03 02:00:44;;;;;;;12.10;3.08;;;;;;;20.55;30.54;99978.16;5050615;28;20533;-43
2022/11/03 02:03:10;;;;;;;7.47;2.75;;;;;;;20.89;30.24;99982.09;5050780;28;20074;-43
2022/11/03 02:05:36;;;;;;;8.77;2.83;;;;;;;21.31;29.94;99985.72;5050651;28;20036;-42
2022/11/03 02:08:10;;;;;;;9.15;2.80;;;;;;;21.05;29.68;99974.84;5049888;28;20393;-43
2022/11/03 02:10:36;;;;;;;7.22;2.70;;;;;;;21.01;29.80;99987.28;5050763;28;20021;-43
2022/11/03 02:13:09;;;;;;;8.82;3.00;;;;;;;21.23;29.46;99995.19;5050744;28;20435;-43
2022/11/03 02:15:36;;;;;;;5.53;2.58;;;;;;;21.51;28.86;99989.56;5050503;28;20136;-43
2022/11/03 02:18:03;;;;;;;8.98;2.60;;;;;;;21.31;29.05;99987.63;5050898;28;20063;-43
2022/11/03 02:20:31;;;;;;;9.60;3.00;;;;;;;21.07;29.87;99979.97;5049267;28;20032;-43
2022/11/03 02:23:08;;;;;;;7.07;2.60;;;;;;;21.22;29.96;99993.53;5050734;28;20043;-42
2022/11/03 02:25:39;;;;;;;9.82;2.80;;;;;;;21.06;29.46;99981.06;5050504;28;20049;-42
2022/11/03 02:28:05;;;;;;;7.80;2.80;;;;;;;21.24;29.23;99987.88;5050411;28;20033;-43
2022/11/03 02:30:42;;;;;;;12.13;2.97;;;;;;;20.97;29.78;99988.09;5050660;28;20066;-43
2022/11/03 02:33:26;;;;;;;10.52;2.95;;;;;;;20.94;29.70;99986.69;5048957;28;20381;-43
2022/11/03 02:35:58;;;;;;;11.20;2.88;;;;;;;20.65;30.18;99997.97;5050346;28;20051;-43
2022/11/03 02:38:27;;;;;;;7.40;2.80;;;;;;;20.56;30.65;99991.44;5050330;28;20525;-43
2022/11/03 02:40:57;;;;;;;11.30;2.90;;;;;;;20.55;30.60;99997.09;5050345;28;20090;-42
2022/11/03 02:43:24;;;;;;;11.73;2.97;;;;;;;20.91;30.00;99991.84;5050186;28;20025;-42
2022/11/03 02:45:51;;;;;;;9.40;2.63;;;;;;;20.70;30.08;100002.59;5050351;28;20041;-42
2022/11/03 02:48:17;;;;;;;7.82;2.70;;;;;;;20.54;30.22;99998.16;5050119;28;20524;-43
2022/11/03 02:50:43;;;;;;;14.35;2.90;;;;;;;20.57;30.39;99993.03;5050135;28;20154;-43
2022/11/03 02:53:12;;;;;;;10.32;3.00;;;;;;;20.51;30.33;99986.78;5050388;28;20037;-43
2022/11/03 02:56:03;;;;;;;9.07;3.10;;;;;;;20.90;30.09;99988.31;5050211;28;20114;-43
2022/11/03 02:58:46;;;;;;;9.70;2.70;;;;;;;20.88;29.82;99988.59;5050008;28;20058;-42
2022/11/03 03:01:20;;;;;;;12.07;3.20;;;;;;;20.65;29.71;99997.16;5050250;28;20056;-42
2022/11/03 03:04:01;;;;;;;9.10;2.90;;;;;;;20.69;29.74;99990.97;5049946;28;20048;-43
2022/11/03 03:06:43;;;;;;;8.93;2.80;;;;;;;20.61;29.96;99993.38;5049759;28;20025;-43
2022/11/03 03:09:17;;;;;;;9.77;3.03;;;;;;;20.41;30.26;99994.88;5050051;28;20465;-42
2022/11/03 03:11:45;;;;;;;12.90;3.17;;;;;;;20.37;30.59;99988.38;5050320;28;20048;-43
2022/11/03 03:14:28;;;;;;;8.65;2.70;;;;;;;20.44;30.59;99993.53;5050043;28;20036;-43
2022/11/03 03:17:03;;;;;;;6.85;2.80;;;;;;;20.36;30.62;99991.31;5050329;28;20028;-42
2022/11/03 03:19:50;;;;;;;10.23;2.92;;;;;;;20.37;30.29;99992.94;5049844;28;20725;-42
2022/11/03 03:22:21;;;;;;;5.50;2.60;;;;;;;20.54;30.29;99993.56;5050112;28;20039;-43
2022/11/03 03:25:15;;;;;;;8.20;2.80;;;;;;;20.70;30.04;99998.00;5049674;28;20060;-43
2022/11/03 03:27:46;;;;;;;12.35;3.08;;;;;;;20.21;30.74;100002.84;5048869;28;20067;-42
2022/11/03 03:30:12;;;;;;;8.15;3.00;;;;;;;20.30;30.77;100004.81;5050118;28;20048;-42
2022/11/03 03:32:42;;;;;;;10.93;2.70;;;;;;;20.45;30.47;99995.97;5053263;28;20392;-42
2022/11/03 03:35:11;;;;;;;8.15;2.80;;;;;;;20.46;30.36;100000.28;5053919;28;20059;-41
2022/11/03 03:37:41;;;;;;;12.20;3.35;;;;;;;20.40;30.42;99997.81;5053914;28;20103;-41
2022/11/03 03:40:12;;;;;;;9.50;3.33;;;;;;;20.59;30.42;100000.91;5053647;28;20028;-41
2022/11/03 03:42:41;;;;;;;7.88;3.03;;;;;;;20.65;30.38;99999.88;5053906;28;20051;-43
2022/11/03 03:45:09;;;;;;;5.57;2.80;;;;;;;20.76;29.98;99998.84;5054062;28;20025;-42
2022/11/03 03:47:35;;;;;;;10.68;3.28;;;;;;;20.49;30.11;99996.25;5053586;28;20434;-43
2022/11/03 03:50:01;;;;;;;10.07;3.10;;;;;;;20.45;30.20;99993.25;5055427;28;20435;-43
2022/11/03 03:52:28;;;;;;;7.40;2.92;;;;;;;20.40;30.93;99987.03;5062053;28;20029;-42
2022/11/03 03:54:55;;;;;;;12.60;3.30;;;;;;;20.64;30.57;99990.13;5073467;28;20400;-41
2022/11/03 03:57:23;;;;;;;10.63;3.50;;;;;;;20.48;30.41;99992.72;5056188;28;20384;-42
2022/11/03 03:59:48;;;;;;;10.65;2.90;;;;;;;20.41;30.33;99984.06;5038239;28;20033;-42
2022/11/03 04:02:14;;;;;;;14.27;3.90;;;;;;;20.67;30.02;99995.81;5033397;28;20026;-43
2022/11/03 04:04:40;;;;;;;7.32;3.15;;;;;;;20.54;30.15;99993.56;5049982;28;20021;-43
2022/11/03 04:09:50;;;;;;;13.32;6.95;;;;;;;20.64;30.00;99996.34;5063270;28;20070;-41
2022/11/03 04:23:15;;;;;;;8.88;2.78;;;;;;;20.78;29.98;100010.19;5052928;28;20516;-41
2022/11/03 04:25:46;;;;;;;8.65;3.00;;;;;;;20.61;30.25;100006.88;5052333;28;20032;-42
2022/11/03 04:28:13;;;;;;;8.43;2.67;;;;;;;20.48;30.36;100005.44;5052496;28;20100;-42
2022/11/03 04:30:39;;;;;;;10.57;3.00;;;;;;;20.21;30.36;100000.16;5052294;28;20017;-42
2022/11/03 04:33:16;;;;;;;6.43;2.60;;;;;;;20.20;30.64;100006.63;5052525;28;20233;-42
2022/11/03 04:35:43;;;;;;;12.07;2.90;;;;;;;20.05;31.24;100008.16;5051659;28;20103;-42
2022/11/03 04:38:14;;;;;;;8.90;2.92;;;;;;;20.26;30.85;100000.19;5049627;28;20358;-42
2022/11/03 04:40:43;;;;;;;8.52;3.92;;;;;;;20.14;31.02;100003.06;5052606;28;20115;-42
2022/11/03 04:43:17;;;;;;;12.30;3.33;;;;;;;20.34;35.07;99998.88;5052029;28;20029;-42
2022/11/03 04:45:44;;;;;;;8.75;2.92;;;;;;;20.25;32.22;100003.94;5051342;28;20033;-42
2022/11/03 04:48:28;;;;;;;6.75;3.10;;;;;;;20.54;32.21;100004.38;5051523;28;20129;-42
2022/11/03 04:50:58;;;;;;;9.18;3.03;;;;;;;20.66;36.19;100012.31;5051509;28;20025;-41
2022/11/03 04:53:27;;;;;;;8.07;2.90;;;;;;;20.49;30.91;100002.47;5052026;28;20048;-42
2022/11/03 04:55:53;;;;;;;8.00;3.50;;;;;;;20.29;34.32;100002.34;5050615;28;20025;-42
2022/11/03 04:58:25;;;;;;;9.50;3.33;;;;;;;20.08;33.77;100012.22;5051230;28;20097;-42
2022/11/03 05:00:53;;;;;;;8.23;3.30;;;;;;;20.57;33.20;100019.28;5050729;28;20024;-42
2022/11/03 05:03:28;;;;;;;10.20;3.60;;;;;;;20.44;32.25;100026.75;5050744;28;20135;-42
2022/11/03 05:05:53;;;;;;;14.43;3.83;;;;;;;20.57;30.28;100021.97;5051515;28;20040;-41
2022/11/03 05:08:20;;;;;;;12.15;3.35;;;;;;;20.61;30.71;100023.09;5051106;28;20481;-42
2022/11/03 05:10:46;;;;;;;9.95;3.33;;;;;;;20.37;30.81;100026.19;5051482;28;20117;-42
2022/11/03 05:13:23;;;;;;;11.80;3.30;;;;;;;20.48;30.65;100033.25;5051818;28;20025;-43
2022/11/03 05:15:51;;;;;;;8.85;3.00;;;;;;;20.34;31.32;100037.53;5051942;28;20051;-43
2022/11/03 05:18:39;;;;;;;10.40;2.90;;;;;;;20.29;31.13;100035.59;5051985;28;20059;-43
2022/11/03 05:21:25;;;;;;;8.82;3.25;;;;;;;20.33;33.88;100038.59;5051323;28;20551;-43
2022/11/03 05:24:09;;;;;;;9.88;3.28;;;;;;;20.60;34.06;100026.88;5051534;28;20370;-42
2022/11/03 05:26:34;;;;;;;9.52;3.45;;;;;;;20.75;30.56;100047.75;5051462;28;20051;-43
2022/11/03 05:29:14;;;;;;;10.57;2.83;;;;;;;20.98;30.21;100051.91;5051446;28;20048;-43
2022/11/03 05:31:42;;;;;;;10.20;3.03;;;;;;;20.85;30.84;100048.63;5051364;28;20028;-44
2022/11/03 05:34:34;;;;;;;12.90;3.13;;;;;;;21.07;30.51;100050.31;5051652;28;20032;-42
2022/11/03 05:37:06;;;;;;;10.93;3.25;;;;;;;20.91;33.23;100065.69;5051239;28;20082;-42
2022/11/03 05:39:42;;;;;;;8.52;2.97;;;;;;;20.80;30.26;100061.31;5049878;28;20339;-43
2022/11/03 05:42:19;;;;;;;15.43;3.90;;;;;;;20.98;30.03;100066.28;5051116;28;20024;-43
2022/11/03 05:44:45;;;;;;;12.68;3.53;;;;;;;20.97;30.64;100071.94;5051222;28;20029;-43
2022/11/03 05:47:17;;;;;;;15.18;3.25;;;;;;;21.03;30.22;100068.16;5051236;28;20035;-43
2022/11/03 05:49:43;;;;;;;13.40;3.30;;;;;;;20.76;30.83;100077.25;5051247;28;20017;-43
2022/11/03 05:52:20;;;;;;;12.73;3.17;;;;;;;20.74;30.43;100082.09;5050262;28;20025;-43
2022/11/03 05:54:46;;;;;;;12.20;3.53;;;;;;;21.06;30.49;100098.22;5049157;28;20099;-42
2022/11/03 05:57:17;;;;;;;11.38;3.15;;;;;;;20.60;30.99;100103.41;5050511;28;20569;-44
2022/11/03 05:59:45;;;;;;;17.02;3.47;;;;;;;20.78;30.48;100104.03;5046096;28;20027;-43
2022/11/03 06:02:31;;;;;;;13.13;3.20;;;;;;;20.82;30.58;100107.84;5043457;28;20025;-42
2022/11/03 06:04:58;;;;;;;8.27;2.90;;;;;;;21.17;29.86;100104.50;5051023;28;20048;-43
2022/11/03 06:07:30;;;;;;;14.85;3.50;;;;;;;21.48;29.94;100110.03;5051489;28;20028;-43
2022/11/03 06:09:57;;;;;;;9.77;3.17;;;;;;;22.21;28.72;100111.72;5051275;28;20021;-46
2022/11/03 06:12:24;;;;;;;8.93;2.78;;;;;;;22.48;28.57;100118.78;5032254;28;20420;-41
2022/11/03 06:14:51;;;;;;;16.23;9.60;;;;;;;22.64;28.46;100121.19;5043159;28;20032;-46
2022/11/03 06:17:26;;;;;;;7.47;3.38;;;;;;;22.84;28.30;100130.34;5052019;28;20021;-45
2022/11/03 06:19:54;;;;;;;8.10;2.80;;;;;;;23.14;27.68;100134.09;5051020;28;20098;-43
2022/11/03 06:22:40;;;;;;;9.98;2.90;;;;;;;23.55;26.94;100144.75;5050484;28;20409;-42
2022/11/03 06:25:17;;;;;;;14.70;3.20;;;;;;;23.72;26.54;100153.38;5049315;28;20057;-42
2022/11/03 06:27:43;;;;;;;11.27;3.00;;;;;;;24.10;26.21;100155.56;5048593;28;20051;-42
2022/11/03 06:30:23;;;;;;;12.85;3.25;;;;;;;24.74;25.40;100167.28;5048955;28;20025;-44
2022/11/03 06:32:48;;;;;;;7.10;2.88;;;;;;;25.35;24.90;100161.16;5049755;28;20078;-42
2022/11/03 06:35:14;;;;;;;9.18;3.20;;;;;;;25.96;24.34;100171.53;5049745;28;20025;-42
2022/11/03 06:37:40;;;;;;;8.30;3.60;;;;;;;26.45;23.74;100172.94;5048826;28;20087;-43
2022/11/03 06:40:09;;;;;;;12.27;3.63;;;;;;;26.86;23.25;100180.41;5049472;28;20029;-42
2022/11/03 06:42:34;;;;;;;12.53;3.53;;;;;;;26.98;22.84;100180.72;5050108;28;20112;-42
2022/11/03 06:45:10;;;;;;;16.65;5.15;;;;;;;25.88;24.95;100194.81;5050481;28;20548;-44
2022/11/03 06:47:39;;;;;;;16.60;6.30;;;;;;;23.77;27.73;100187.84;5050467;28;20057;-42
2022/11/03 06:50:20;;;;;;;20.33;6.18;;;;;;;23.68;27.93;100193.03;5050431;28;20111;-42
2022/11/03 06:52:48;;;;;;;19.23;6.57;;;;;;;23.79;28.04;100196.53;5050304;28;20021;-41
2022/11/03 06:55:21;;;;;;;21.33;5.72;;;;;;;23.09;28.50;100201.97;5050709;28;20029;-43
2022/11/03 06:57:53;;;;;;;13.00;5.65;;;;;;;22.58;29.35;100187.38;5050732;28;20029;-45
2022/11/03 07:00:22;;;;;;;15.52;5.75;;;;;;;23.11;29.00;100189.72;5050354;28;20120;-42
2022/11/03 07:03:04;;;;;;;17.23;5.63;;;;;;;23.66;28.37;100199.84;5050593;28;20017;-44
2022/11/03 07:05:31;;;;;;;17.85;5.03;;;;;;;22.97;28.77;100207.66;5050418;28;20053;-43
2022/11/03 07:08:01;;;;;;;16.05;5.30;;;;;;;22.54;29.48;100208.00;5053985;28;20028;-43
2022/11/03 07:10:32;;;;;;;11.57;5.05;;;;;;;22.20;30.13;100213.06;5054014;28;20107;-43
2022/11/03 07:13:12;;;;;;;16.48;4.75;;;;;;;22.17;30.20;100210.91;5054137;28;20029;-42
2022/11/03 07:15:38;;;;;;;10.25;5.18;;;;;;;22.43;29.59;100211.78;5054691;28;20123;-43
2022/11/03 07:18:34;;;;;;;13.85;4.60;;;;;;;22.64;29.21;100205.28;5054497;28;20025;-43
2022/11/03 07:21:05;;;;;;;11.02;4.95;;;;;;;23.20;28.64;100219.84;5054104;28;20374;-43
2022/11/03 07:23:30;;;;;;;12.48;5.28;;;;;;;23.63;27.95;100217.53;5054076;28;20053;-44
2022/11/03 07:25:59;;;;;;;12.85;4.80;;;;;;;22.93;28.73;100220.16;5054371;28;20023;-43
2022/11/03 07:28:36;;;;;;;14.32;5.10;;;;;;;22.90;28.79;100221.50;5054286;28;20052;-43
2022/11/03 07:31:12;;;;;;;15.05;5.00;;;;;;;22.57;29.21;100218.28;5054143;28;20029;-42
2022/11/03 07:33:38;;;;;;;11.48;4.93;;;;;;;22.61;29.46;100219.38;5054301;28;20082;-44
2022/11/03 07:36:05;;;;;;;15.07;4.82;;;;;;;22.48;29.75;100225.34;5053795;28;20025;-43
2022/11/03 07:38:32;;;;;;;10.90;4.55;;;;;;;21.99;30.12;100220.34;5053585;28;20104;-44
2022/11/03 07:40:58;;;;;;;12.88;5.15;;;;;;;22.47;30.03;100218.28;5053792;28;20033;-44
2022/11/03 07:43:27;;;;;;;13.55;4.90;;;;;;;22.94;29.10;100217.19;5053719;28;20029;-43
2022/11/03 07:45:55;;;;;;;19.00;5.23;;;;;;;22.51;29.64;100213.94;5053994;28;20025;-43
2022/11/03 07:48:26;;;;;;;15.93;5.43;;;;;;;22.67;29.39;100212.03;5053615;28;20043;-44
2022/11/03 07:50:54;;;;;;;18.75;5.57;;;;;;;22.96;29.47;100220.44;5054018;28;20021;-42
2022/11/03 07:53:35;;;;;;;13.95;5.85;;;;;;;22.37;30.39;100215.56;5046922;28;20083;-42
2022/11/03 07:56:12;;;;;;;16.67;5.97;;;;;;;23.17;29.24;100221.22;5052268;28;20067;-42
2022/11/03 07:58:39;;;;;;;15.57;5.55;;;;;;;23.28;28.64;100207.59;5052859;28;20035;-43
2022/11/03 08:01:19;;;;;;;12.50;5.65;;;;;;;23.30;28.95;100217.09;5053025;28;20562;-43
2022/11/03 08:03:46;;;;;;;11.75;5.97;;;;;;;24.03;28.18;100207.56;5053256;28;20120;-45
2022/11/03 08:06:12;;;;;;;14.07;5.38;;;;;;;23.38;28.31;100205.69;5053325;28;20103;-43
2022/11/03 08:08:37;;;;;;;11.35;5.50;;;;;;;23.46;28.96;100206.19;5053015;28;20021;-43
2022/11/03 08:11:03;;;;;;;14.65;5.78;;;;;;;23.29;28.70;100204.63;5052981;28;20020;-44
2022/11/03 08:13:29;;;;;;;11.50;5.65;;;;;;;22.94;29.27;100203.63;5051047;28;20028;-44
2022/11/03 08:15:55;;;;;;;17.45;6.55;;;;;;;23.16;29.40;100203.28;5051137;28;20044;-42
2022/11/03 08:18:20;;;;;;;15.43;6.40;;;;;;;23.35;28.88;100203.50;5049898;28;20373;-43
2022/11/03 08:20:46;;;;;;;14.48;5.70;;;;;;;23.81;28.43;100202.50;5051554;28;20029;-43
2022/11/03 08:23:11;;;;;;;14.32;6.07;;;;;;;23.20;29.11;100209.78;5051608;28;20032;-43
2022/11/03 08:25:37;;;;;;;12.68;6.28;;;;;;;23.20;28.92;100200.84;5052558;28;20096;-43
2022/11/03 08:28:03;;;;;;;10.27;5.00;;;;;;;22.85;28.98;100205.25;5051036;28;20032;-42
2022/11/03 08:30:29;;;;;;;12.07;5.20;;;;;;;22.93;29.31;100196.53;5052450;28;20060;-43
2022/11/03 08:32:54;;;;;;;13.30;4.78;;;;;;;23.69;28.19;100207.44;5052575;28;20043;-42
2022/11/03 08:35:20;;;;;;;12.40;5.25;;;;;;;23.05;28.96;100203.59;5052276;28;20379;-43
2022/11/03 08:37:45;;;;;;;16.58;5.40;;;;;;;23.87;27.94;100203.28;5052480;28;20408;-43
2022/11/03 08:40:12;;;;;;;13.95;5.30;;;;;;;23.87;28.04;100206.81;5052157;28;20036;-43
2022/11/03 08:42:37;;;;;;;13.88;5.63;;;;;;;24.17;27.69;100194.94;5052202;28;20407;-43
2022/11/03 08:45:03;;;;;;;12.27;5.60;;;;;;;24.07;27.81;100202.38;5052376;28;20017;-42
2022/11/03 08:47:28;;;;;;;13.85;5.63;;;;;;;23.03;29.35;100206.59;5052176;28;20025;-42
2022/11/03 08:49:54;;;;;;;11.23;5.60;;;;;;;23.72;29.08;100196.84;5052076;28;20095;-44
2022/11/03 08:52:20;;;;;;;12.27;5.68;;;;;;;24.27;27.44;100193.22;5052229;28;20044;-43
2022/11/03 08:54:46;;;;;;;16.48;5.72;;;;;;;23.85;28.29;100203.56;5051789;28;20057;-43
2022/11/03 08:57:11;;;;;;;12.68;5.40;;;;;;;23.62;28.10;100202.31;5052053;28;20102;-43
2022/11/03 08:59:37;;;;;;;11.27;5.65;;;;;;;23.91;28.05;100197.03;5052135;28;20021;-45
2022/11/03 09:02:03;;;;;;;16.30;5.43;;;;;;;23.84;28.36;100201.13;5052326;28;20017;-42
2022/11/03 09:04:28;;;;;;;14.23;5.80;;;;;;;24.43;27.78;100197.47;5051580;28;20025;-44
2022/11/03 09:06:53;;;;;;;15.90;4.85;;;;;;;23.92;27.96;100192.41;5052542;28;20021;-44
2022/11/03 09:09:20;;;;;;;16.70;5.20;;;;;;;23.92;27.98;100195.13;5052255;28;20029;-43
2022/11/03 09:11:46;;;;;;;14.38;5.50;;;;;;;24.00;28.35;100191.78;5051754;28;20461;-43
2022/11/03 09:14:11;;;;;;;13.30;5.35;;;;;;;24.61;27.54;100195.16;5051877;28;20058;-43
2022/11/03 09:16:36;;;;;;;17.13;5.70;;;;;;;24.75;27.50;100190.66;5051916;28;20045;-43
2022/11/03 09:19:02;;;;;;;16.42;5.90;;;;;;;24.85;27.09;100182.41;5051661;28;20025;-43
2022/11/03 09:21:27;;;;;;;10.38;5.18;;;;;;;24.85;26.98;100176.16;5051501;28;20021;-43
2022/11/03 09:23:52;;;;;;;14.25;5.80;;;;;;;25.44;26.54;100171.44;5051414;28;20045;-42
2022/11/03 09:26:19;;;;;;;14.32;6.28;;;;;;;25.56;26.58;100174.53;5051740;28;20448;-42
2022/11/03 09:28:44;;;;;;;15.13;7.32;;;;;;;25.08;27.28;100174.56;5051541;28;20071;-44
2022/11/03 09:31:10;;;;;;;13.85;6.80;;;;;;;24.67;27.60;100164.88;5051687;28;20044;-44
2022/11/03 09:33:35;;;;;;;13.98;6.70;;;;;;;24.35;28.22;100165.41;5051617;28;20021;-45
2022/11/03 09:36:01;;;;;;;13.48;6.70;;;;;;;24.20;28.51;100156.31;5051541;28;20116;-43
2022/11/03 09:38:26;;;;;;;17.33;6.80;;;;;;;24.56;27.85;100164.19;5051065;28;20104;-43
2022/11/03 09:40:53;;;;;;;14.95;6.63;;;;;;;24.75;27.59;100155.28;5051628;28;20051;-43
2022/11/03 09:43:19;;;;;;;13.18;6.40;;;;;;;24.90;27.39;100157.03;5051772;28;20021;-43
2022/11/03 09:45:44;;;;;;;12.30;5.80;;;;;;;25.06;27.14;100153.06;5051289;28;20028;-44
2022/11/03 09:48:11;;;;;;;16.65;6.40;;;;;;;25.23;26.74;100158.06;5051302;28;20051;-44
2022/11/03 09:50:38;;;;;;;10.93;5.85;;;;;;;25.09;26.89;100157.09;5051115;28;20025;-44
2022/11/03 09:53:03;;;;;;;14.75;6.13;;;;;;;25.17;26.34;100153.75;5051001;28;20119;-44
2022/11/03 09:55:29;;;;;;;14.05;5.95;;;;;;;25.10;26.84;100147.84;5051050;28;20458;-44
2022/11/03 09:57:59;;;;;;;14.00;5.90;;;;;;;24.69;27.33;100143.66;5051095;28;20025;-43
2022/11/03 10:00:26;;;;;;;13.77;6.07;;;;;;;25.49;26.34;100149.53;5050638;28;20017;-44
2022/11/03 10:02:53;;;;;;;10.85;6.18;;;;;;;25.15;26.68;100147.75;5050642;28;20500;-42
2022/11/03 10:05:26;;;;;;;14.00;5.97;;;;;;;25.56;26.06;100137.19;5050488;28;20057;-46
2022/11/03 10:08:04;;;;;;;10.23;5.70;;;;;;;25.68;26.15;100123.13;5050453;28;20028;-44
2022/11/03 10:10:30;;;;;;;13.02;6.53;;;;;;;25.37;26.48;100139.09;5050741;28;20024;-43
2022/11/03 10:12:56;;;;;;;13.05;6.30;;;;;;;25.03;27.18;100133.75;5050232;28;20036;-43
2022/11/03 10:15:24;;;;;;;13.95;5.82;;;;;;;24.62;27.63;100136.91;5050774;28;20037;-43
2022/11/03 10:17:51;;;;;;;11.32;6.10;;;;;;;24.41;27.74;100131.66;5050654;28;20032;-44
2022/11/03 10:20:19;;;;;;;16.17;6.43;;;;;;;24.69;27.65;100118.34;5050505;28;20111;-43
2022/11/03 10:22:46;;;;;;;11.82;6.40;;;;;;;24.52;28.26;100107.91;5051156;28;20111;-44
2022/11/03 10:25:48;;;;;;;10.35;6.30;;;;;;;24.80;27.83;100114.41;5050712;28;20131;-43
2022/11/03 10:28:18;;;;;;;13.65;6.13;;;;;;;24.98;27.12;100105.50;5050468;28;20137;-42
2022/11/03 10:30:59;;;;;;;14.45;6.25;;;;;;;25.41;26.86;100098.44;5050466;28;20485;-41
2022/11/03 10:33:27;;;;;;;11.90;6.35;;;;;;;25.79;26.37;100106.63;5050583;28;20032;-41
2022/11/03 10:35:53;;;;;;;13.60;6.20;;;;;;;25.88;26.20;100096.66;5050479;28;20037;-42
2022/11/03 10:38:27;;;;;;;10.63;5.68;;;;;;;26.09;25.84;100095.25;5050734;28;20021;-43
2022/11/03 10:40:54;;;;;;;15.02;6.10;;;;;;;25.94;25.86;100096.31;5049458;28;20618;-42
2022/11/03 10:43:19;;;;;;;16.83;6.05;;;;;;;25.28;26.60;100091.81;5050397;28;20424;-42
2022/11/03 10:45:45;;;;;;;14.18;5.97;;;;;;;25.40;26.76;100081.31;5050492;28;20489;-43
2022/11/03 10:48:10;;;;;;;10.18;5.32;;;;;;;25.21;26.60;100081.25;5050741;28;20016;-41
2022/11/03 10:50:39;;;;;;;10.82;5.82;;;;;;;25.45;26.52;100077.69;5050482;28;20029;-43
2022/11/03 10:53:05;;;;;;;10.95;5.60;;;;;;;25.45;26.56;100069.53;5050461;28;20025;-44
2022/11/03 10:55:30;;;;;;;11.25;5.50;;;;;;;25.77;26.08;100065.22;5050359;28;20025;-41
2022/11/03 10:57:57;;;;;;;12.10;5.65;;;;;;;25.37;26.02;100062.81;5050452;28;20186;-43
2022/11/03 11:00:23;;;;;;;10.68;5.10;;;;;;;25.56;26.10;100066.34;5050172;28;20029;-44
2022/11/03 11:02:55;;;;;;;15.15;5.38;;;;;;;26.34;25.46;100058.53;5050575;28;20021;-43
2022/11/03 11:05:22;;;;;;;14.38;5.40;;;;;;;27.02;24.69;100056.13;5050181;28;20040;-42
2022/11/03 11:07:50;;;;;;;13.73;5.40;;;;;;;26.59;25.25;100052.91;5049966;28;20021;-45
2022/11/03 11:10:19;;;;;;;12.82;5.57;;;;;;;26.58;25.39;100043.91;5050097;28;20031;-43
2022/11/03 11:13:03;;;;;;;;;;;;;;;26.66;25.06;100043.22;5050757;28;20017;-44
2022/11/03 11:15:41;;;;;;;15.27;5.68;;;;;;;26.60;25.06;100038.16;5050172;28;20004;-44
2022/11/03 11:18:08;;;;;;;13.32;5.57;;;;;;;26.85;24.56;100037.66;5050660;28;20021;-43
2022/11/03 11:20:37;;;;;;;18.17;6.22;;;;;;;27.40;24.33;100034.00;5049817;28;20025;-43
2022/11/03 11:23:27;;;;;;;12.85;5.57;;;;;;;27.21;24.23;100034.16;5050437;28;20025;-42
2022/11/03 11:26:07;;;;;;;11.63;5.28;;;;;;;26.84;24.50;100033.28;5050114;28;20032;-43
2022/11/03 11:28:33;;;;;;;12.65;5.20;;;;;;;26.44;24.99;100027.50;5049824;28;20025;-42
2022/11/03 11:30:59;;;;;;;11.60;5.30;;;;;;;26.44;24.96;100022.06;5050213;28;20025;-44
2022/11/03 11:33:33;;;;;;;13.98;5.68;;;;;;;26.69;24.90;100025.41;5050114;28;20039;-44
2022/11/03 11:35:58;;;;;;;14.68;5.40;;;;;;;26.79;24.94;100011.56;5050184;28;20025;-43
2022/11/03 11:38:54;;;;;;;10.18;5.28;;;;;;;27.38;24.04;100003.47;5049229;28;20035;-43
2022/11/03 11:41:40;;;;;;;10.40;5.55;;;;;;;27.81;23.74;100000.19;5049275;28;20461;-45
2022/11/03 11:44:42;;;;;;;15.00;5.60;;;;;;;27.64;23.84;99995.44;5037973;28;20067;-44
2022/11/03 11:47:22;;;;;;;12.75;5.40;;;;;;;27.26;24.35;99990.34;5049528;28;20119;-45
2022/11/03 11:49:58;;;;;;;14.77;5.95;;;;;;;27.18;24.79;100001.16;5049174;28;20029;-44
2022/11/03 11:52:24;;;;;;;14.15;5.55;;;;;;;26.54;25.30;99996.50;5050566;28;20029;-43
2022/11/03 11:54:50;;;;;;;10.57;5.80;;;;;;;26.75;25.13;99988.75;5052923;28;20146;-43